createdAt,value
2022-09-28T00:02:12.595Z,7.12
2022-09-28T00:07:12.497Z,7
2022-09-28T00:12:12.511Z,7.18
2022-09-28T00:17:12.506Z,7.18
2022-09-28T00:22:12.505Z,7.06
2022-09-28T00:27:12.490Z,7.31
2022-09-28T00:32:12.517Z,7.25
2022-09-28T00:37:12.513Z,7.31
2022-09-28T00:42:12.480Z,7.31
2022-09-28T00:47:12.477Z,7.25
2022-09-28T00:52:12.478Z,7.25
2022-09-28T00:57:12.490Z,7.25
2022-09-28T01:02:12.518Z,7.43
2022-09-28T01:07:12.477Z,7.62
2022-09-28T01:12:12.454Z,7.62
2022-09-28T01:17:12.457Z,7.43
2022-09-28T01:22:12.444Z,7.93
2022-09-28T01:27:12.450Z,7.43
2022-09-28T01:32:12.480Z,7.68
2022-09-28T01:37:12.458Z,7.56
2022-09-28T01:42:12.420Z,7.43
2022-09-28T01:47:12.430Z,7.37
2022-09-28T01:52:12.434Z,7.62
2022-09-28T01:57:12.428Z,7.75
2022-09-28T02:02:12.442Z,7.56
2022-09-28T02:07:12.409Z,7.62
2022-09-28T02:12:12.401Z,7.31
2022-09-28T02:17:12.410Z,7.5
2022-09-28T02:22:12.395Z,7.25
2022-09-28T02:27:12.404Z,7.43
2022-09-28T02:32:12.379Z,7.31
2022-09-28T02:37:12.376Z,7.31
2022-09-28T02:42:12.367Z,7.18
2022-09-28T02:47:12.377Z,7.18
2022-09-28T02:52:12.369Z,7.31
2022-09-28T02:57:12.361Z,7.31
2022-09-28T03:02:12.382Z,7.37
2022-09-28T03:07:12.358Z,7.18
2022-09-28T03:12:12.340Z,7.37
2022-09-28T03:17:12.340Z,7.18
2022-09-28T03:22:12.356Z,7.12
2022-09-28T03:27:12.348Z,7
2022-09-28T03:32:12.320Z,6.81
2022-09-28T03:37:12.333Z,7
2022-09-28T03:42:12.312Z,7.06
2022-09-28T03:47:12.339Z,6.81
2022-09-28T03:52:12.303Z,7
2022-09-28T03:57:12.301Z,6.81
2022-09-28T04:02:12.329Z,6.93
2022-09-28T04:07:12.297Z,6.68
2022-09-28T04:12:12.305Z,6.87
2022-09-28T04:17:12.285Z,6.87
2022-09-28T04:22:12.308Z,6.93
2022-09-28T04:27:12.276Z,6.87
2022-09-28T04:32:12.270Z,7
2022-09-28T04:37:12.277Z,7.12
2022-09-28T04:42:12.273Z,7.37
2022-09-28T04:47:12.277Z,7.06
2022-09-28T04:52:17.289Z,6.93
2022-09-28T04:57:12.259Z,6.93
2022-09-28T05:02:12.316Z,7.18
2022-09-28T05:12:12.258Z,7.37
2022-09-28T05:17:12.245Z,7.5
2022-09-28T05:22:12.231Z,7.25
2022-09-28T05:37:12.208Z,7.37
2022-09-28T05:47:12.203Z,7.06
2022-09-28T05:57:12.219Z,7.37
2022-09-28T06:02:12.257Z,8
2022-09-28T06:07:12.199Z,7.62
2022-09-28T06:12:12.190Z,7.68
2022-09-28T06:17:12.195Z,7.87
2022-09-28T06:22:12.189Z,7.87
2022-09-28T06:27:12.193Z,7.75
2022-09-28T06:32:12.180Z,7.87
2022-09-28T06:37:12.175Z,8.12
2022-09-28T06:42:12.167Z,7.68
2022-09-28T06:47:12.155Z,7.81
2022-09-28T06:52:12.155Z,7.62
2022-09-28T06:57:12.173Z,7.68
2022-09-28T07:02:12.214Z,7.81
2022-09-28T07:07:12.164Z,8
2022-09-28T07:12:12.137Z,7.81
2022-09-28T07:17:13.936Z,7.93
2022-09-28T07:22:15.018Z,8.06
2022-09-28T07:27:12.137Z,8.62
2022-09-28T07:32:12.117Z,8.25
2022-09-28T07:37:12.131Z,8.18
2022-09-28T07:42:12.116Z,8.62
2022-09-28T07:47:12.112Z,8.93
2022-09-28T07:52:12.102Z,8.43
2022-09-28T07:57:12.117Z,8.43
2022-09-28T08:02:12.129Z,8.37
2022-09-28T08:07:12.084Z,8.62
2022-09-28T08:12:12.095Z,8.93
2022-09-28T08:17:12.096Z,8.68
2022-09-28T08:22:12.062Z,9.12
2022-09-28T08:27:12.091Z,8.81
2022-09-28T08:32:12.074Z,9.43
2022-09-28T08:37:12.065Z,9.37
2022-09-28T08:42:12.058Z,9.18
2022-09-28T08:47:12.055Z,9.43
2022-09-28T08:52:12.041Z,9.31
2022-09-28T08:57:12.053Z,9.43
2022-09-28T09:02:12.121Z,10.06
2022-09-28T09:07:12.019Z,9.87
2022-09-28T09:12:12.027Z,10.56
2022-09-28T09:17:12.027Z,10.06
2022-09-28T09:22:12.016Z,9.93
2022-09-28T09:27:12.012Z,10.62
2022-09-28T09:32:12.023Z,10.75
2022-09-28T09:37:11.991Z,11.31
2022-09-28T09:42:12.112Z,11.06
2022-09-28T09:47:11.983Z,11.31
2022-09-28T09:52:11.975Z,10.68
2022-09-28T09:57:11.980Z,11.31
2022-09-28T10:02:12.095Z,10.68
2022-09-28T10:07:11.961Z,10.37
2022-09-28T10:12:11.967Z,9.37
2022-09-28T10:17:11.962Z,8.75
2022-09-28T10:22:11.974Z,8.68
2022-09-28T10:27:11.944Z,8.62
2022-09-28T10:32:11.957Z,8.75
2022-09-28T10:37:11.938Z,9.25
2022-09-28T10:42:11.930Z,9.93
2022-09-28T10:47:11.933Z,10
2022-09-28T10:52:11.938Z,9.5
2022-09-28T10:57:13.485Z,9.12
2022-09-28T11:02:11.945Z,9.12
2022-09-28T11:07:12.469Z,10.18
2022-09-28T11:12:11.899Z,10.06
2022-09-28T11:17:11.911Z,10.18
2022-09-28T11:22:13.609Z,10.37
2022-09-28T11:27:11.895Z,10.68
2022-09-28T11:32:15.630Z,10.56
2022-09-28T11:37:11.873Z,10.18
2022-09-28T11:42:15.563Z,10.68
2022-09-28T11:47:11.852Z,11.12
2022-09-28T11:52:11.864Z,10.43
2022-09-28T11:57:11.843Z,10.75
2022-09-28T12:02:11.927Z,11
2022-09-28T12:07:11.851Z,11.25
2022-09-28T12:12:11.847Z,11.81
2022-09-28T12:17:11.901Z,10.5
2022-09-28T12:22:11.826Z,10.18
2022-09-28T12:27:11.811Z,11.06
2022-09-28T12:32:11.833Z,10.68
2022-09-28T12:37:11.807Z,10.87
2022-09-28T12:42:11.792Z,10.93
2022-09-28T12:47:11.817Z,9.93
2022-09-28T12:52:11.799Z,10.68
2022-09-28T12:57:11.784Z,10.06
2022-09-28T13:02:11.825Z,10.43
2022-09-28T13:07:11.788Z,9.93
2022-09-28T13:12:11.790Z,9.93
2022-09-28T13:17:11.779Z,10.43
2022-09-28T13:22:11.754Z,9.68
2022-09-28T13:27:11.758Z,10.37
2022-09-28T13:32:11.737Z,10.18
2022-09-28T13:37:11.749Z,10.06
2022-09-28T13:42:11.754Z,10.06
2022-09-28T13:47:11.791Z,10
2022-09-28T13:52:11.729Z,9.93
2022-09-28T13:57:11.715Z,10.18
2022-09-28T14:12:11.706Z,9.5
2022-09-28T14:17:11.705Z,9.43
2022-09-28T14:22:11.704Z,9.81
2022-09-28T14:27:11.687Z,9.5
2022-09-28T14:32:11.712Z,9.5
2022-09-28T14:37:11.680Z,9.62
2022-09-28T14:42:11.680Z,9.81
2022-09-28T14:47:11.693Z,9.68
2022-09-28T14:52:11.660Z,9.37
2022-09-28T14:57:11.683Z,9.5
2022-09-28T15:02:11.675Z,9.37
2022-09-28T15:07:11.642Z,9.25
2022-09-28T15:12:11.637Z,9.18
2022-09-28T15:17:11.642Z,9.18
2022-09-28T15:22:11.645Z,9.25
2022-09-28T15:27:11.636Z,9.12
2022-09-28T15:32:11.633Z,8.93
2022-09-28T15:37:11.620Z,8.87
2022-09-28T15:42:11.621Z,8.87
2022-09-28T15:47:11.624Z,8.87
2022-09-28T15:52:11.613Z,8.56
2022-09-28T15:57:11.595Z,8.75
2022-09-28T16:02:11.599Z,8.56
2022-09-28T16:07:16.586Z,8.62
2022-09-28T16:12:11.580Z,8.18
2022-09-28T16:17:11.582Z,8.18
2022-09-28T16:22:11.578Z,9.12
2022-09-28T16:27:11.589Z,8.31
2022-09-28T16:32:11.579Z,8.25
2022-09-28T16:37:11.563Z,8.62
2022-09-28T16:42:16.568Z,8.56
2022-09-28T16:47:11.557Z,8.37
2022-09-28T16:52:11.545Z,8.37
2022-09-28T16:57:11.547Z,8.31
2022-09-28T17:02:20.834Z,8.18
2022-09-28T17:07:11.536Z,8.12
2022-09-28T17:12:11.538Z,8.37
2022-09-28T17:17:15.085Z,8.31
2022-09-28T17:22:11.541Z,8
2022-09-28T17:27:21.507Z,8.37
2022-09-28T17:32:11.491Z,8.12
2022-09-28T17:37:11.510Z,8.18
2022-09-28T17:42:11.483Z,7.87
2022-09-28T17:47:11.499Z,7.87
2022-09-28T17:52:11.506Z,7.68
2022-09-28T17:57:11.514Z,8
2022-09-28T18:02:11.477Z,7.87
2022-09-28T18:07:11.474Z,7.93
2022-09-28T18:12:11.460Z,8.12
2022-09-28T18:17:11.471Z,8.31
2022-09-28T18:22:11.463Z,7.87
2022-09-28T18:27:11.458Z,7.81
2022-09-28T18:32:11.463Z,7.93
2022-09-28T18:37:11.485Z,7.87
2022-09-28T18:42:11.471Z,7.56
2022-09-28T18:47:11.447Z,7.68
2022-09-28T18:52:11.437Z,7.75
2022-09-28T18:57:11.423Z,7.81
2022-09-28T19:02:11.489Z,7.62
2022-09-28T19:07:11.410Z,7.68
2022-09-28T19:12:11.408Z,7.68
2022-09-28T19:17:11.415Z,7.81
2022-09-28T19:22:11.394Z,7.62
2022-09-28T19:37:11.387Z,7.56
2022-09-28T19:47:11.376Z,7.68
2022-09-28T19:52:14.101Z,7.75
2022-09-28T19:57:11.381Z,7.5
2022-09-28T20:02:11.405Z,7.43
2022-09-28T20:07:11.394Z,7.68
2022-09-28T20:12:11.350Z,7.43
2022-09-28T20:17:11.355Z,7.43
2022-09-28T20:22:11.343Z,7.43
2022-09-28T20:37:11.332Z,7.43
2022-09-28T20:42:11.320Z,7.62
2022-09-28T20:47:11.391Z,7.12
2022-09-28T20:57:11.320Z,7
2022-09-28T21:02:11.343Z,7.5
2022-09-28T21:07:11.307Z,7.06
2022-09-28T21:12:11.309Z,7
2022-09-28T21:17:11.310Z,7.18
2022-09-28T21:22:11.299Z,7.87
2022-09-28T21:27:11.306Z,7.62
2022-09-28T21:32:11.305Z,7.31
2022-09-28T21:37:11.292Z,8
2022-09-28T21:42:11.287Z,7.43
2022-09-28T21:47:11.267Z,7.25
2022-09-28T21:52:11.281Z,7.12
2022-09-28T21:57:11.274Z,7.43
2022-09-28T22:12:11.284Z,7.75
2022-09-28T22:17:11.263Z,7.25
2022-09-28T22:22:11.309Z,7.18
2022-09-28T22:27:11.246Z,6.87
2022-09-28T22:32:11.255Z,6.81
2022-09-28T22:37:11.244Z,6.93
2022-09-28T22:42:11.231Z,6.75
2022-09-28T22:47:11.251Z,7.06
2022-09-28T22:52:11.238Z,6.81
2022-09-28T22:57:11.232Z,6.75
2022-09-28T23:02:11.220Z,7.06
2022-09-28T23:07:11.202Z,7.31
2022-09-28T23:12:11.232Z,6.81
2022-09-28T23:17:11.196Z,6.93
2022-09-28T23:22:11.201Z,6.93
2022-09-28T23:27:11.198Z,7.12
2022-09-28T23:32:11.198Z,6.75
2022-09-28T23:37:11.230Z,6.87
2022-09-28T23:42:11.214Z,7.18
2022-09-28T23:47:11.185Z,7.31
2022-09-28T23:52:11.172Z,6.62
2022-09-28T23:57:11.165Z,6.5
